createdAt,value
2022-08-09T00:02:42.936Z,21.49
2022-08-09T00:07:54.247Z,22.00
2022-08-09T00:12:57.285Z,21.60
2022-08-09T00:18:07.745Z,20.10
2022-08-09T00:23:56.599Z,19.04
2022-08-09T00:28:37.531Z,18.26
2022-08-09T00:33:51.194Z,18.47
2022-08-09T00:38:54.709Z,20.31
2022-08-09T00:44:10.711Z,21.26
2022-08-09T00:49:20.726Z,21.89
2022-08-09T00:54:31.395Z,21.69
2022-08-09T00:59:46.588Z,20.05
2022-08-09T01:05:14.153Z,18.96
2022-08-09T01:10:45.938Z,18.13
2022-08-09T01:15:56.898Z,18.51
2022-08-09T01:21:20.954Z,20.11
2022-08-09T01:26:46.421Z,20.93
2022-08-09T01:32:31.030Z,20.70
2022-08-09T01:38:05.738Z,19.11
2022-08-09T01:42:50.209Z,18.11
2022-08-09T01:47:57.021Z,18.28
2022-08-09T01:53:01.866Z,19.95
2022-08-09T01:58:24.007Z,20.90
2022-08-09T02:03:30.474Z,21.44
2022-08-09T02:08:57.558Z,21.22
2022-08-09T02:14:07.728Z,19.64
2022-08-09T02:19:12.181Z,18.61
2022-08-09T02:24:26.305Z,17.95
2022-08-09T02:29:34.634Z,18.28
2022-08-09T02:34:41.543Z,20.03
2022-08-09T02:40:02.023Z,20.79
2022-08-09T02:45:13.869Z,21.27
2022-08-09T02:50:25.295Z,20.99
2022-08-09T02:55:39.425Z,19.41
2022-08-09T03:00:58.666Z,18.26
2022-08-09T03:06:03.596Z,18.32
2022-08-09T03:11:07.286Z,19.90
2022-08-09T03:16:14.881Z,20.71
2022-08-09T03:21:20.542Z,21.23
2022-08-09T03:26:31.858Z,21.06
2022-08-09T03:31:42.469Z,19.58
2022-08-09T03:36:58.546Z,18.50
2022-08-09T03:42:07.107Z,18.57
2022-08-09T03:47:10.051Z,20.21
2022-08-09T03:52:16.729Z,21.01
2022-08-09T03:57:21.990Z,21.54
2022-08-09T04:02:28.798Z,21.29
2022-08-09T04:07:47.107Z,19.75
2022-08-09T04:12:55.362Z,18.67
2022-08-09T04:17:58.097Z,18.02
2022-08-09T04:23:02.059Z,18.31
2022-08-09T04:28:05.410Z,20.08
2022-08-09T04:33:08.357Z,21.06
2022-08-09T04:38:11.605Z,21.13
2022-08-09T04:43:18.125Z,19.84
2022-08-09T04:48:23.784Z,19.03
2022-08-09T04:53:35.964Z,18.57
2022-08-09T04:58:39.072Z,19.16
2022-08-09T05:03:43.829Z,21.04
2022-08-09T05:08:48.024Z,21.57
2022-08-09T05:13:51.165Z,20.57
2022-08-09T05:18:59.957Z,19.96
2022-08-09T05:24:04.810Z,19.58
2022-08-09T05:29:17.267Z,20.26
2022-08-09T05:34:20.744Z,21.91
2022-08-09T05:39:28.827Z,22.17
2022-08-09T05:44:35.067Z,20.91
2022-08-09T05:50:30.399Z,20.09
2022-08-09T05:55:03.026Z,20.32
2022-08-09T06:00:13.501Z,21.83
2022-08-09T06:05:16.614Z,21.46
2022-08-09T06:10:19.517Z,20.47
2022-08-09T06:15:22.345Z,19.91
2022-08-09T06:20:25.605Z,20.27
2022-08-09T06:25:28.660Z,21.57
2022-08-09T06:30:32.004Z,20.79
2022-08-09T06:35:57.226Z,20.09
2022-08-09T06:40:58.209Z,20.67
2022-08-09T06:46:06.284Z,22.39
2022-08-09T06:51:14.902Z,22.23
2022-08-09T06:56:19.662Z,21.32
2022-08-09T07:01:24.133Z,20.77
2022-08-09T07:06:30.548Z,20.72
2022-08-09T07:11:45.494Z,22.16
2022-08-09T07:16:58.406Z,21.62
2022-08-09T07:22:02.029Z,20.94
2022-08-09T07:27:11.108Z,20.65
2022-08-09T07:32:32.838Z,20.44
2022-08-09T07:37:42.951Z,21.16
2022-08-09T07:43:16.705Z,23.04
2022-08-09T07:48:25.742Z,22.81
2022-08-09T07:53:36.447Z,21.92
2022-08-09T07:58:59.508Z,21.49
2022-08-09T08:04:03.667Z,21.28
2022-08-09T08:09:07.700Z,21.33
2022-08-09T08:14:23.960Z,21.41
2022-08-09T08:19:31.056Z,21.62
2022-08-09T08:24:40.732Z,21.93
2022-08-09T08:29:48.703Z,22.29
2022-08-09T08:34:55.439Z,22.64
2022-08-09T08:40:06.096Z,23.18
2022-08-09T08:45:13.726Z,24.57
2022-08-09T08:50:18.373Z,27.29
2022-08-09T08:55:23.538Z,29.86
2022-08-09T09:00:34.327Z,31.20
2022-08-09T09:06:00.523Z,31.60
2022-08-09T09:11:06.593Z,31.77
2022-08-09T09:16:10.178Z,32.96
2022-08-09T09:21:13.709Z,33.89
2022-08-09T09:26:18.538Z,35.29
2022-08-09T09:32:04.344Z,35.25
2022-08-09T09:36:53.356Z,34.69
2022-08-09T09:41:59.273Z,33.97
2022-08-09T09:47:08.738Z,33.14
2022-08-09T09:52:33.544Z,32.90
2022-08-09T09:58:02.278Z,33.90
2022-08-09T10:02:59.672Z,34.46
2022-08-09T10:08:27.382Z,34.01
2022-08-09T10:13:43.366Z,33.88
2022-08-09T10:18:54.227Z,34.45
2022-08-09T10:24:04.026Z,36.03
2022-08-09T10:29:38.027Z,37.06
2022-08-09T10:34:33.512Z,38.16
2022-08-09T10:39:49.285Z,39.18
2022-08-09T10:45:02.424Z,38.50
2022-08-09T10:51:01.319Z,36.98
2022-08-09T10:56:29.560Z,36.61
2022-08-09T11:03:13.092Z,38.42
2022-08-09T11:07:03.826Z,38.66
2022-08-09T11:12:13.057Z,40.25
2022-08-09T11:17:19.499Z,41.19
2022-08-09T11:22:47.364Z,40.87
2022-08-09T11:28:03.918Z,40.94
2022-08-09T11:33:17.516Z,41.70
2022-08-09T11:38:32.063Z,42.25
2022-08-09T11:43:35.841Z,42.17
2022-08-09T11:48:54.858Z,42.30
2022-08-09T11:54:28.132Z,42.57
2022-08-09T11:59:33.982Z,42.97
2022-08-09T12:04:38.198Z,42.83
2022-08-09T12:09:50.529Z,40.93
2022-08-09T12:15:04.321Z,39.29
2022-08-09T12:20:34.556Z,40.56
2022-08-09T12:25:38.362Z,41.41
2022-08-09T12:30:53.458Z,40.89
2022-08-09T12:36:05.507Z,39.32
2022-08-09T12:41:36.310Z,36.67
2022-08-09T12:46:48.882Z,34.12
2022-08-09T12:52:02.406Z,32.09
2022-08-09T12:57:06.246Z,30.57
2022-08-09T13:02:09.693Z,29.38
2022-08-09T13:07:19.425Z,28.36
2022-08-09T13:12:23.370Z,27.61
2022-08-09T13:18:02.576Z,27.06
2022-08-09T13:23:04.871Z,26.59
2022-08-09T13:28:24.350Z,26.32
2022-08-09T13:33:53.418Z,26.19
2022-08-09T13:39:00.942Z,26.09
2022-08-09T13:44:07.065Z,26.06
2022-08-09T13:49:18.343Z,26.06
2022-08-09T13:54:21.873Z,26.13
2022-08-09T13:59:41.550Z,26.16
2022-08-09T14:04:49.477Z,26.21
2022-08-09T14:10:03.203Z,26.31
2022-08-09T14:16:06.577Z,26.45
2022-08-09T14:20:30.509Z,26.71
2022-08-09T14:25:42.931Z,27.11
2022-08-09T14:30:46.308Z,27.57
2022-08-09T14:35:52.161Z,27.89
2022-08-09T14:41:02.372Z,28.46
2022-08-09T14:46:56.151Z,29.06
2022-08-09T14:51:42.789Z,29.41
2022-08-09T14:56:57.747Z,30.49
2022-08-09T15:02:01.906Z,33.65
2022-08-09T15:07:05.474Z,34.29
2022-08-09T15:12:13.086Z,33.83
2022-08-09T15:17:16.008Z,34.52
2022-08-09T15:22:18.897Z,33.10
2022-08-09T15:27:24.921Z,31.73
2022-08-09T15:32:30.553Z,30.73
2022-08-09T15:37:56.698Z,29.82
2022-08-09T15:43:00.040Z,28.71
2022-08-09T15:48:16.110Z,27.87
2022-08-09T15:54:05.275Z,27.18
2022-08-09T15:58:53.081Z,26.75
2022-08-09T16:03:55.903Z,26.44
2022-08-09T16:09:04.906Z,26.13
2022-08-09T16:14:08.454Z,25.87
2022-08-09T16:19:13.791Z,25.79
2022-08-09T16:24:30.267Z,25.81
2022-08-09T16:29:36.997Z,25.75
2022-08-09T16:34:54.352Z,25.47
2022-08-09T16:40:04.783Z,25.19
2022-08-09T16:45:09.691Z,24.96
2022-08-09T16:50:33.205Z,24.86
2022-08-09T16:55:57.905Z,24.67
2022-08-09T17:00:59.864Z,24.38
2022-08-09T17:06:29.460Z,24.13
2022-08-09T17:11:37.683Z,23.95
2022-08-09T17:16:44.629Z,23.66
2022-08-09T17:21:47.478Z,23.29
2022-08-09T17:26:53.632Z,22.92
2022-08-09T17:31:58.367Z,22.64
2022-08-09T17:37:02.309Z,22.41
2022-08-09T17:42:06.008Z,22.22
2022-08-09T17:47:10.575Z,22.06
2022-08-09T17:52:22.269Z,21.85
2022-08-09T17:58:03.968Z,21.58
2022-08-09T18:02:50.184Z,21.30
2022-08-09T18:08:01.136Z,21.03
2022-08-09T18:13:53.696Z,20.77
2022-08-09T18:18:32.895Z,20.49
2022-08-09T18:24:10.376Z,20.23
2022-08-09T18:30:40.886Z,19.98
2022-08-09T18:34:23.884Z,19.72
2022-08-09T18:39:32.125Z,19.48
2022-08-09T18:44:35.644Z,19.26
2022-08-09T18:49:43.185Z,19.06
2022-08-09T18:54:52.166Z,18.86
2022-08-09T19:00:03.053Z,18.65
2022-08-09T19:05:20.090Z,18.47
2022-08-09T19:10:37.542Z,18.27
2022-08-09T19:15:44.093Z,18.10
2022-08-09T19:20:56.976Z,17.94
2022-08-09T19:26:04.940Z,17.78
2022-08-09T19:31:08.327Z,17.65
2022-08-09T19:36:11.888Z,17.51
2022-08-09T19:41:32.656Z,17.38
2022-08-09T19:46:50.826Z,18.10
2022-08-09T19:51:57.185Z,20.20
2022-08-09T19:57:00.481Z,21.32
2022-08-09T20:02:17.148Z,21.42
2022-08-09T20:07:57.039Z,20.04
2022-08-09T20:12:51.901Z,19.15
2022-08-09T20:17:55.288Z,18.56
2022-08-09T20:22:58.217Z,18.10
2022-08-09T20:28:02.718Z,17.72
2022-08-09T20:33:06.562Z,17.39
2022-08-09T20:38:21.120Z,17.93
2022-08-09T20:43:32.324Z,19.98
2022-08-09T20:48:37.266Z,21.01
2022-08-09T20:53:40.752Z,21.67
2022-08-09T20:58:44.168Z,21.21
2022-08-09T21:05:48.209Z,19.78
2022-08-09T21:09:14.170Z,18.74
2022-08-09T21:14:19.514Z,18.04
2022-08-09T21:20:19.345Z,18.31
2022-08-09T21:25:05.305Z,20.43
2022-08-09T21:30:09.127Z,21.30
2022-08-09T21:35:13.500Z,20.68
2022-08-09T21:40:22.004Z,19.23
2022-08-09T21:45:38.799Z,18.25
2022-08-09T21:50:46.667Z,18.35
2022-08-09T21:55:54.613Z,19.99
2022-08-09T22:00:57.313Z,20.77
2022-08-09T22:06:01.092Z,21.22
2022-08-09T22:12:06.707Z,20.57
2022-08-09T22:16:26.791Z,18.89
2022-08-09T22:21:49.820Z,18.68
2022-08-09T22:26:54.142Z,20.16
2022-08-09T22:31:58.088Z,20.85
2022-08-09T22:37:01.468Z,20.61
2022-08-09T22:42:16.359Z,18.96
2022-08-09T22:48:14.264Z,18.73
2022-08-09T22:52:54.659Z,20.15
2022-08-09T22:58:00.935Z,20.78
2022-08-09T23:03:12.584Z,21.06
2022-08-09T23:08:34.806Z,19.92
2022-08-09T23:13:37.756Z,18.34
2022-08-09T23:18:41.944Z,18.21
2022-08-09T23:24:05.632Z,19.68
2022-08-09T23:29:11.566Z,20.44
2022-08-09T23:34:14.318Z,20.86
2022-08-09T23:39:17.562Z,20.50
2022-08-09T23:44:20.428Z,18.82
2022-08-09T23:49:24.702Z,18.41
2022-08-09T23:54:27.861Z,19.68
2022-08-09T23:59:51.145Z,20.27
